createdAt,value
2019-06-07T00:02:16.353Z,14.97
2019-06-07T00:06:24.376Z,8.37
2019-06-07T00:10:35.977Z,9.33
2019-06-07T00:14:32.069Z,7.07
2019-06-07T00:18:36.627Z,9.63
2019-06-07T00:22:41.189Z,8.17
2019-06-07T00:26:57.793Z,9.73
2019-06-07T00:30:52.768Z,10.70
2019-06-07T00:34:57.461Z,9.87
2019-06-07T00:39:02.083Z,6.90
2019-06-07T00:43:06.698Z,10.67
2019-06-07T00:47:13.012Z,9.70
2019-06-07T00:51:19.023Z,14.63
2019-06-07T00:55:27.498Z,12.17
2019-06-07T00:59:29.952Z,13.30
2019-06-07T01:03:34.585Z,10.93
2019-06-07T01:07:39.211Z,11.80
2019-06-07T01:11:43.724Z,8.65
2019-06-07T01:15:48.295Z,7.25
2019-06-07T01:19:55.645Z,8.07
2019-06-07T01:24:11.339Z,11.10
2019-06-07T01:28:06.441Z,8.10
2019-06-07T01:32:11.007Z,9.33
2019-06-07T01:36:17.892Z,10.93
2019-06-07T01:40:28.857Z,9.77
2019-06-07T01:44:31.206Z,9.58
2019-06-07T01:48:49.144Z,12.82
2019-06-07T01:52:41.187Z,12.88
2019-06-07T01:56:45.866Z,12.00
2019-06-07T02:00:50.511Z,8.90
2019-06-07T02:04:55.077Z,8.73
2019-06-07T02:08:59.644Z,8.53
2019-06-07T02:13:04.172Z,10.55
2019-06-07T02:17:08.743Z,9.70
2019-06-07T02:21:13.332Z,12.65
2019-06-07T02:25:37.056Z,11.33
2019-06-07T02:29:25.470Z,10.37
2019-06-07T02:33:37.368Z,10.03
2019-06-07T02:37:37.389Z,10.77
2019-06-07T02:41:42.314Z,10.48
2019-06-07T02:45:46.879Z,13.58
2019-06-07T02:49:51.433Z,9.60
2019-06-07T02:53:55.980Z,12.30
2019-06-07T02:58:00.566Z,11.25
2019-06-07T03:02:05.264Z,11.05
2019-06-07T03:06:11.178Z,11.08
2019-06-07T03:10:15.926Z,13.68
2019-06-07T03:14:22.661Z,14.00
2019-06-07T03:18:44.787Z,13.20
2019-06-07T03:22:51.218Z,13.98
2019-06-07T03:31:03.380Z,16.27
2019-06-07T03:35:08.221Z,12.75
2019-06-07T03:39:12.853Z,14.23
2019-06-07T03:43:17.432Z,16.23
2019-06-07T03:47:21.988Z,16.27
2019-06-07T03:51:27.378Z,15.70
2019-06-07T03:55:37.786Z,18.93
2019-06-07T03:59:41.407Z,15.10
2019-06-07T04:03:51.299Z,15.77
2019-06-07T04:07:51.590Z,13.97
2019-06-07T04:11:56.173Z,16.13
2019-06-07T04:16:00.705Z,17.53
2019-06-07T04:20:05.504Z,15.93
2019-06-07T04:24:10.088Z,15.37
2019-06-07T04:28:14.652Z,22.03
2019-06-07T04:32:19.243Z,21.00
2019-06-07T04:36:44.200Z,17.27
2019-06-07T04:40:32.304Z,18.17
2019-06-07T04:44:42.206Z,15.83
2019-06-07T04:48:46.468Z,15.53
2019-06-07T04:52:51.029Z,19.40
2019-06-07T04:56:55.560Z,17.97
2019-06-07T05:01:03.462Z,17.57
2019-06-07T05:05:07.168Z,20.20
2019-06-07T05:09:11.733Z,20.17
2019-06-07T05:13:16.296Z,14.70
2019-06-07T05:17:20.970Z,17.10
2019-06-07T05:21:25.500Z,17.97
2019-06-07T05:25:31.727Z,19.43
2019-06-07T05:29:37.239Z,14.33
2019-06-07T05:33:43.526Z,12.17
2019-06-07T05:37:48.317Z,12.40
2019-06-07T05:41:52.881Z,10.97
2019-06-07T05:45:57.453Z,8.53
2019-06-07T05:50:02.291Z,10.23
2019-06-07T05:54:07.039Z,8.87
2019-06-07T05:58:11.602Z,9.17
2019-06-07T06:02:22.611Z,10.13
2019-06-07T06:06:22.392Z,9.17
2019-06-07T06:10:26.957Z,9.43
2019-06-07T06:14:31.516Z,8.73
2019-06-07T06:18:36.047Z,11.18
2019-06-07T06:22:44.788Z,13.30
2019-06-07T06:26:54.080Z,7.20
2019-06-07T06:30:53.256Z,6.37
2019-06-07T06:34:57.818Z,7.97
2019-06-07T06:39:02.321Z,8.33
2019-06-07T06:43:06.867Z,9.70
2019-06-07T06:47:11.436Z,6.20
2019-06-07T06:51:16.032Z,5.57
2019-06-07T06:55:20.807Z,6.00
2019-06-07T06:59:38.758Z,4.17
2019-06-07T07:03:56.510Z,6.37
2019-06-07T07:07:37.923Z,4.87
2019-06-07T07:11:56.290Z,4.00
2019-06-07T07:15:55.103Z,9.00
2019-06-07T07:19:55.646Z,5.10
2019-06-07T07:24:20.241Z,6.60
2019-06-07T07:28:07.381Z,5.63
2019-06-07T07:32:11.938Z,4.60
2019-06-07T07:36:37.555Z,6.83
2019-06-07T07:44:29.495Z,8.37
2019-06-07T07:48:34.069Z,5.40
2019-06-07T07:52:38.634Z,5.80
2019-06-07T07:56:45.326Z,5.33
2019-06-07T08:00:53.904Z,4.40
2019-06-07T08:09:01.811Z,6.17
2019-06-07T08:13:23.630Z,7.57
2019-06-07T08:17:12.597Z,6.77
2019-06-07T08:21:25.832Z,6.87
2019-06-07T08:25:23.883Z,4.67
2019-06-07T08:29:44.531Z,6.07
2019-06-07T08:33:34.680Z,4.07
2019-06-07T08:38:14.703Z,6.73
2019-06-07T08:41:59.332Z,5.30
2019-06-07T08:45:58.516Z,4.87
2019-06-07T08:50:04.382Z,5.77
2019-06-07T08:54:21.787Z,6.20
2019-06-07T08:58:10.640Z,3.87
2019-06-07T09:02:23.847Z,4.73
2019-06-07T09:07:01.937Z,6.37
2019-06-07T09:10:27.623Z,4.83
2019-06-07T09:14:32.207Z,6.07
2019-06-07T09:18:46.489Z,6.10
2019-06-07T09:22:51.164Z,5.13
2019-06-07T09:27:00.241Z,5.93
2019-06-07T09:31:09.859Z,5.83
2019-06-07T09:35:16.604Z,4.47
2019-06-07T09:39:17.114Z,3.97
2019-06-07T09:47:32.236Z,4.90
2019-06-07T09:51:34.080Z,6.47
2019-06-07T09:55:38.670Z,7.40
2019-06-07T09:59:43.256Z,2.87
2019-06-07T10:03:47.884Z,6.33
2019-06-07T10:08:04.117Z,7.33
2019-06-07T10:11:58.691Z,4.07
2019-06-07T10:16:03.254Z,7.80
2019-06-07T10:20:09.746Z,4.07
2019-06-07T10:24:15.438Z,5.13
2019-06-07T10:28:19.995Z,6.70
2019-06-07T10:32:24.554Z,6.10
2019-06-07T10:36:29.156Z,4.63
2019-06-07T10:40:33.740Z,7.17
2019-06-07T10:44:38.278Z,5.17
2019-06-07T10:48:42.949Z,4.07
2019-06-07T10:52:47.693Z,2.00
2019-06-07T10:56:52.264Z,3.90
2019-06-07T11:00:56.844Z,6.73
2019-06-07T11:05:01.449Z,4.03
2019-06-07T11:09:08.407Z,4.57
2019-06-07T11:13:16.061Z,8.37
2019-06-07T11:17:20.645Z,5.70
2019-06-07T11:21:25.207Z,5.13
2019-06-07T11:25:29.755Z,3.87
2019-06-07T11:29:34.321Z,4.00
2019-06-07T11:33:39.025Z,6.60
2019-06-07T11:37:43.689Z,4.73
2019-06-07T11:41:48.682Z,5.57
2019-06-07T11:45:53.218Z,7.20
2019-06-07T11:49:57.813Z,3.53
2019-06-07T11:54:02.543Z,4.30
2019-06-07T11:58:11.118Z,4.30
2019-06-07T12:02:13.468Z,9.20
2019-06-07T12:06:18.168Z,3.07
2019-06-07T12:10:23.280Z,4.23
2019-06-07T12:14:27.968Z,5.23
2019-06-07T12:18:32.533Z,2.30
2019-06-07T12:22:37.110Z,5.63
2019-06-07T12:26:44.933Z,3.60
2019-06-07T12:30:49.513Z,3.77
2019-06-07T12:34:54.100Z,5.27
2019-06-07T12:38:58.690Z,5.33
2019-06-07T12:43:03.296Z,2.70
2019-06-07T12:47:07.835Z,3.77
2019-06-07T12:51:13.161Z,2.00
2019-06-07T12:55:20.285Z,3.50
2019-06-07T12:59:24.612Z,3.83
2019-06-07T13:03:29.325Z,2.53
2019-06-07T13:07:33.897Z,3.27
2019-06-07T13:11:38.460Z,3.67
2019-06-07T13:15:43.038Z,5.80
2019-06-07T13:19:47.635Z,6.47
2019-06-07T13:23:52.172Z,3.20
2019-06-07T13:27:56.775Z,4.60
2019-06-07T13:32:01.367Z,2.90
2019-06-07T13:36:05.980Z,3.13
2019-06-07T13:40:10.870Z,4.57
2019-06-07T13:44:16.700Z,3.63
2019-06-07T13:48:21.489Z,4.60
2019-06-07T13:52:26.033Z,5.33
2019-06-07T13:56:30.602Z,4.30
2019-06-07T14:00:35.133Z,5.00
2019-06-07T14:04:39.803Z,9.13
2019-06-07T14:08:44.368Z,3.90
2019-06-07T14:12:49.062Z,6.07
2019-06-07T14:16:53.942Z,3.77
2019-06-07T14:20:59.066Z,2.83
2019-06-07T14:25:03.750Z,3.87
2019-06-07T14:29:08.379Z,6.90
2019-06-07T14:33:13.000Z,4.10
2019-06-07T14:37:17.637Z,3.40
2019-06-07T14:41:23.171Z,4.70
2019-06-07T14:45:28.202Z,3.33
2019-06-07T14:49:32.970Z,3.60
2019-06-07T14:53:39.014Z,3.67
2019-06-07T14:57:43.707Z,2.30
2019-06-07T15:01:48.365Z,2.80
2019-06-07T15:05:53.020Z,2.93
2019-06-07T15:09:58.477Z,2.87
2019-06-07T15:14:06.046Z,3.63
2019-06-07T15:18:11.393Z,3.63
2019-06-07T15:22:15.973Z,2.00
2019-06-07T15:26:20.579Z,5.70
2019-06-07T15:30:25.288Z,2.00
2019-06-07T15:34:30.514Z,3.10
2019-06-07T15:38:35.157Z,3.20
2019-06-07T15:42:49.766Z,5.27
2019-06-07T15:46:45.996Z,2.77
2019-06-07T15:50:50.537Z,2.60
2019-06-07T15:54:55.124Z,8.13
2019-06-07T15:58:59.709Z,2.90
2019-06-07T16:03:04.284Z,5.27
2019-06-07T16:07:08.838Z,4.10
2019-06-07T16:11:13.388Z,2.97
2019-06-07T16:15:18.737Z,3.07
2019-06-07T16:19:23.379Z,5.43
2019-06-07T16:23:33.677Z,2.63
2019-06-07T16:27:38.694Z,5.53
2019-06-07T16:31:43.248Z,3.20
2019-06-07T16:35:47.791Z,3.33
2019-06-07T16:39:52.333Z,4.57
2019-06-07T16:43:56.930Z,5.97
2019-06-07T16:48:01.436Z,5.53
2019-06-07T16:52:06.174Z,4.07
2019-06-07T16:56:10.721Z,3.17
2019-06-07T17:00:15.994Z,4.33
2019-06-07T17:04:21.445Z,6.07
2019-06-07T17:08:30.155Z,5.47
2019-06-07T17:12:38.323Z,3.80
2019-06-07T17:16:45.857Z,3.13
2019-06-07T17:20:50.418Z,2.97
2019-06-07T17:24:54.961Z,4.43
2019-06-07T17:28:59.463Z,3.40
2019-06-07T17:33:04.005Z,4.07
2019-06-07T17:37:08.548Z,3.57
2019-06-07T17:41:13.096Z,3.70
2019-06-07T17:45:17.952Z,3.50
2019-06-07T17:49:22.457Z,4.20
2019-06-07T17:53:30.439Z,4.10
2019-06-07T17:57:33.216Z,3.93
2019-06-07T18:01:41.585Z,4.33
2019-06-07T18:05:45.133Z,3.93
2019-06-07T18:09:49.722Z,4.13
2019-06-07T18:14:09.424Z,4.53
2019-06-07T18:18:00.473Z,3.90
2019-06-07T18:22:05.021Z,4.30
2019-06-07T18:26:09.540Z,4.43
2019-06-07T18:30:14.106Z,4.10
2019-06-07T18:34:18.651Z,4.57
2019-06-07T18:38:23.197Z,4.33
2019-06-07T18:42:27.740Z,4.93
2019-06-07T18:46:32.253Z,6.43
2019-06-07T18:50:36.885Z,5.10
2019-06-07T18:54:41.440Z,4.87
2019-06-07T18:58:47.142Z,4.80
2019-06-07T19:02:51.990Z,4.70
2019-06-07T19:06:56.548Z,5.67
2019-06-07T19:11:01.109Z,3.83
2019-06-07T19:15:07.005Z,16.53
2019-06-07T19:19:11.620Z,3.20
2019-06-07T19:23:17.301Z,4.37
2019-06-07T19:27:21.833Z,5.67
2019-06-07T19:31:26.392Z,3.10
2019-06-07T19:35:30.936Z,5.60
2019-06-07T19:39:35.492Z,5.87
2019-06-07T19:43:40.201Z,4.07
2019-06-07T19:47:52.469Z,7.17
2019-06-07T19:51:57.086Z,4.57
2019-06-07T19:56:01.616Z,8.90
2019-06-07T20:00:13.681Z,5.87
2019-06-07T20:04:13.573Z,4.80
2019-06-07T20:08:18.093Z,7.47
2019-06-07T20:12:22.647Z,5.00
2019-06-07T20:16:27.204Z,8.93
2019-06-07T20:20:31.745Z,7.97
2019-06-07T20:24:38.166Z,7.13
2019-06-07T20:28:42.505Z,6.57
2019-06-07T20:32:47.056Z,5.97
2019-06-07T20:36:51.611Z,5.77
2019-06-07T20:40:56.976Z,5.77
2019-06-07T20:45:02.149Z,4.60
2019-06-07T20:49:06.784Z,2.13
2019-06-07T20:53:11.341Z,3.83
2019-06-07T20:57:15.905Z,5.63
2019-06-07T21:01:20.465Z,5.53
2019-06-07T21:05:25.041Z,5.07
2019-06-07T21:09:29.604Z,1.67
2019-06-07T21:13:34.172Z,4.47
2019-06-07T21:17:38.916Z,3.87
2019-06-07T21:21:43.628Z,4.10
2019-06-07T21:25:48.149Z,3.17
2019-06-07T21:29:52.717Z,3.90
2019-06-07T21:33:57.273Z,3.53
2019-06-07T21:38:01.956Z,4.13
2019-06-07T21:42:06.573Z,3.27
2019-06-07T21:46:17.308Z,4.60
2019-06-07T21:50:17.585Z,2.37
2019-06-07T21:54:22.147Z,1.90
2019-06-07T21:58:26.708Z,6.77
2019-06-07T22:02:31.267Z,2.43
2019-06-07T22:06:35.828Z,1.03
2019-06-07T22:10:40.393Z,1.30
2019-06-07T22:14:44.973Z,3.57
2019-06-07T22:18:49.541Z,3.53
2019-06-07T22:22:54.057Z,4.70
2019-06-07T22:26:58.632Z,4.83
2019-06-07T22:31:03.238Z,1.67
2019-06-07T22:35:08.951Z,2.43
2019-06-07T22:39:13.970Z,6.93
2019-06-07T22:43:19.230Z,2.87
2019-06-07T22:47:23.860Z,3.23
2019-06-07T22:51:28.409Z,1.70
2019-06-07T22:55:32.996Z,2.87
2019-06-07T22:59:37.549Z,1.10
2019-06-07T23:03:42.373Z,4.50
2019-06-07T23:07:46.891Z,7.10
2019-06-07T23:11:51.448Z,2.87
2019-06-07T23:15:56.013Z,4.30
2019-06-07T23:20:00.578Z,1.10
2019-06-07T23:24:05.245Z,0.97
2019-06-07T23:28:10.256Z,1.67
2019-06-07T23:32:14.839Z,3.37
2019-06-07T23:36:19.397Z,2.50
2019-06-07T23:40:23.945Z,1.40
2019-06-07T23:44:28.517Z,3.57
2019-06-07T23:48:33.032Z,2.47
2019-06-07T23:52:37.580Z,1.23
2019-06-07T23:56:42.143Z,3.43
